sensor_id;sensor_type;location;lat;lon;timestamp;temperature;humidity
21184;DHT22;18176;49.502;11.754;2023-12-20T00:02:12;3.70;99.90
21184;DHT22;18176;49.502;11.754;2023-12-20T00:06:12;3.60;99.90
21184;DHT22;18176;49.502;11.754;2023-12-20T00:10:13;3.50;99.90
21184;DHT22;18176;49.502;11.754;2023-12-20T00:14:16;3.50;99.90
21184;DHT22;18176;49.502;11.754;2023-12-20T00:18:17;3.50;99.90
21184;DHT22;18176;49.502;11.754;2023-12-20T00:22:17;3.40;99.90
21184;DHT22;18176;49.502;11.754;2023-12-20T00:26:17;3.40;99.90
21184;DHT22;18176;49.502;11.754;2023-12-20T00:30:21;3.50;99.90
21184;DHT22;18176;49.502;11.754;2023-12-20T00:34:21;3.40;99.90
21184;DHT22;18176;49.502;11.754;2023-12-20T00:38:21;3.40;99.90
21184;DHT22;18176;49.502;11.754;2023-12-20T00:42:22;3.40;99.90
21184;DHT22;18176;49.502;11.754;2023-12-20T00:46:24;3.40;99.90
21184;DHT22;18176;49.502;11.754;2023-12-20T00:50:25;3.40;99.90
21184;DHT22;18176;49.502;11.754;2023-12-20T00:54:26;3.50;99.90
21184;DHT22;18176;49.502;11.754;2023-12-20T00:58:28;3.50;99.90
21184;DHT22;18176;49.502;11.754;2023-12-20T01:02:34;3.40;99.90
21184;DHT22;18176;49.502;11.754;2023-12-20T01:06:34;3.40;99.90
21184;DHT22;18176;49.502;11.754;2023-12-20T01:10:34;3.50;99.90
21184;DHT22;18176;49.502;11.754;2023-12-20T01:14:34;3.50;99.90
21184;DHT22;18176;49.502;11.754;2023-12-20T01:18:39;3.50;99.90
21184;DHT22;18176;49.502;11.754;2023-12-20T01:22:39;3.50;99.90
21184;DHT22;18176;49.502;11.754;2023-12-20T01:26:39;3.50;99.90
21184;DHT22;18176;49.502;11.754;2023-12-20T01:30:40;3.50;99.90
21184;DHT22;18176;49.502;11.754;2023-12-20T01:34:43;3.50;99.90
21184;DHT22;18176;49.502;11.754;2023-12-20T01:38:43;3.60;99.90
21184;DHT22;18176;49.502;11.754;2023-12-20T01:42:44;3.80;99.90
21184;DHT22;18176;49.502;11.754;2023-12-20T01:46:45;4.00;99.90
21184;DHT22;18176;49.502;11.754;2023-12-20T01:50:49;4.00;99.90
21184;DHT22;18176;49.502;11.754;2023-12-20T01:54:49;4.20;99.90
21184;DHT22;18176;49.502;11.754;2023-12-20T01:58:52;4.30;99.90
21184;DHT22;18176;49.502;11.754;2023-12-20T02:02:53;4.40;99.90
21184;DHT22;18176;49.502;11.754;2023-12-20T02:07:01;4.40;99.90
21184;DHT22;18176;49.502;11.754;2023-12-20T02:11:03;4.40;99.90
21184;DHT22;18176;49.502;11.754;2023-12-20T02:15:05;4.40;99.90
21184;DHT22;18176;49.502;11.754;2023-12-20T02:19:12;4.40;99.90
21184;DHT22;18176;49.502;11.754;2023-12-20T02:23:16;4.30;99.90
21184;DHT22;18176;49.502;11.754;2023-12-20T02:27:18;4.30;99.90
21184;DHT22;18176;49.502;11.754;2023-12-20T02:31:21;4.30;99.90
21184;DHT22;18176;49.502;11.754;2023-12-20T02:35:21;4.20;99.90
21184;DHT22;18176;49.502;11.754;2023-12-20T02:39:24;4.10;99.90
21184;DHT22;18176;49.502;11.754;2023-12-20T02:43:25;4.20;99.90
21184;DHT22;18176;49.502;11.754;2023-12-20T02:47:25;4.20;99.90
21184;DHT22;18176;49.502;11.754;2023-12-20T02:51:27;4.10;99.90
21184;DHT22;18176;49.502;11.754;2023-12-20T02:55:29;4.10;99.90
21184;DHT22;18176;49.502;11.754;2023-12-20T02:59:30;4.00;99.90
21184;DHT22;18176;49.502;11.754;2023-12-20T03:03:30;4.00;99.90
21184;DHT22;18176;49.502;11.754;2023-12-20T03:07:31;4.10;99.90
21184;DHT22;18176;49.502;11.754;2023-12-20T03:11:33;4.00;99.90
21184;DHT22;18176;49.502;11.754;2023-12-20T03:15:33;4.00;99.90
21184;DHT22;18176;49.502;11.754;2023-12-20T03:19:34;3.90;99.90
21184;DHT22;18176;49.502;11.754;2023-12-20T03:23:34;3.90;99.90
21184;DHT22;18176;49.502;11.754;2023-12-20T03:27:39;3.90;99.90
21184;DHT22;18176;49.502;11.754;2023-12-20T03:31:40;3.80;99.90
21184;DHT22;18176;49.502;11.754;2023-12-20T03:35:41;3.60;99.90
21184;DHT22;18176;49.502;11.754;2023-12-20T03:39:41;3.60;99.90
21184;DHT22;18176;49.502;11.754;2023-12-20T03:43:44;3.50;99.90
21184;DHT22;18176;49.502;11.754;2023-12-20T03:47:44;3.50;99.90
21184;DHT22;18176;49.502;11.754;2023-12-20T03:51:45;3.40;99.90
21184;DHT22;18176;49.502;11.754;2023-12-20T03:55:46;3.40;99.90
21184;DHT22;18176;49.502;11.754;2023-12-20T03:59:49;3.40;99.90
21184;DHT22;18176;49.502;11.754;2023-12-20T04:03:49;3.40;99.90
21184;DHT22;18176;49.502;11.754;2023-12-20T04:07:49;3.40;99.90
21184;DHT22;18176;49.502;11.754;2023-12-20T04:11:50;3.30;99.90
21184;DHT22;18176;49.502;11.754;2023-12-20T04:15:53;3.30;99.90
21184;DHT22;18176;49.502;11.754;2023-12-20T04:19:54;3.20;99.90
21184;DHT22;18176;49.502;11.754;2023-12-20T04:23:54;3.20;99.90
21184;DHT22;18176;49.502;11.754;2023-12-20T04:27:54;3.20;99.90
21184;DHT22;18176;49.502;11.754;2023-12-20T04:31:57;3.10;99.90
21184;DHT22;18176;49.502;11.754;2023-12-20T04:35:57;3.10;99.90
21184;DHT22;18176;49.502;11.754;2023-12-20T04:39:58;3.20;99.90
21184;DHT22;18176;49.502;11.754;2023-12-20T04:43:59;3.10;99.90
21184;DHT22;18176;49.502;11.754;2023-12-20T04:48:02;3.10;99.90
21184;DHT22;18176;49.502;11.754;2023-12-20T04:52:03;3.10;99.90
21184;DHT22;18176;49.502;11.754;2023-12-20T04:56:05;3.10;99.90
21184;DHT22;18176;49.502;11.754;2023-12-20T05:00:07;3.10;99.90
21184;DHT22;18176;49.502;11.754;2023-12-20T05:04:10;3.10;99.90
21184;DHT22;18176;49.502;11.754;2023-12-20T05:08:10;3.10;99.90
21184;DHT22;18176;49.502;11.754;2023-12-20T05:12:11;3.10;99.90
21184;DHT22;18176;49.502;11.754;2023-12-20T05:16:12;3.20;99.90
21184;DHT22;18176;49.502;11.754;2023-12-20T05:20:18;3.20;99.90
21184;DHT22;18176;49.502;11.754;2023-12-20T05:24:18;3.20;99.90
21184;DHT22;18176;49.502;11.754;2023-12-20T05:28:19;3.20;99.90
21184;DHT22;18176;49.502;11.754;2023-12-20T05:32:19;3.20;99.90
21184;DHT22;18176;49.502;11.754;2023-12-20T05:36:23;3.20;99.90
21184;DHT22;18176;49.502;11.754;2023-12-20T05:40:23;3.20;99.90
21184;DHT22;18176;49.502;11.754;2023-12-20T05:44:23;3.20;99.90
21184;DHT22;18176;49.502;11.754;2023-12-20T05:48:23;3.20;99.90
21184;DHT22;18176;49.502;11.754;2023-12-20T05:52:27;3.20;99.90
21184;DHT22;18176;49.502;11.754;2023-12-20T05:56:27;3.20;99.90
21184;DHT22;18176;49.502;11.754;2023-12-20T06:00:28;3.20;99.90
21184;DHT22;18176;49.502;11.754;2023-12-20T06:04:28;3.20;99.90
21184;DHT22;18176;49.502;11.754;2023-12-20T06:08:31;3.20;99.90
21184;DHT22;18176;49.502;11.754;2023-12-20T06:12:31;3.30;99.90
21184;DHT22;18176;49.502;11.754;2023-12-20T06:16:33;3.30;99.90
21184;DHT22;18176;49.502;11.754;2023-12-20T06:20:33;3.30;99.90
21184;DHT22;18176;49.502;11.754;2023-12-20T06:24:36;3.20;99.90
21184;DHT22;18176;49.502;11.754;2023-12-20T06:28:36;3.30;99.90
21184;DHT22;18176;49.502;11.754;2023-12-20T06:32:38;3.30;99.90
21184;DHT22;18176;49.502;11.754;2023-12-20T06:36:39;3.30;99.90
21184;DHT22;18176;49.502;11.754;2023-12-20T06:40:42;3.30;99.90
21184;DHT22;18176;49.502;11.754;2023-12-20T06:44:43;3.30;99.90
21184;DHT22;18176;49.502;11.754;2023-12-20T06:48:43;3.30;99.90
21184;DHT22;18176;49.502;11.754;2023-12-20T06:52:43;3.40;99.90
21184;DHT22;18176;49.502;11.754;2023-12-20T06:56:49;3.30;99.90
21184;DHT22;18176;49.502;11.754;2023-12-20T07:00:50;3.30;99.90
21184;DHT22;18176;49.502;11.754;2023-12-20T07:04:51;3.40;99.90
21184;DHT22;18176;49.502;11.754;2023-12-20T07:08:52;3.40;99.90
21184;DHT22;18176;49.502;11.754;2023-12-20T07:12:55;3.30;99.90
21184;DHT22;18176;49.502;11.754;2023-12-20T07:16:55;3.40;99.90
21184;DHT22;18176;49.502;11.754;2023-12-20T07:20:55;3.40;99.90
21184;DHT22;18176;49.502;11.754;2023-12-20T07:24:56;3.50;99.90
21184;DHT22;18176;49.502;11.754;2023-12-20T07:28:58;3.50;99.90
21184;DHT22;18176;49.502;11.754;2023-12-20T07:33:00;3.50;99.90
21184;DHT22;18176;49.502;11.754;2023-12-20T07:37:00;3.50;99.90
21184;DHT22;18176;49.502;11.754;2023-12-20T07:41:01;3.60;99.90
21184;DHT22;18176;49.502;11.754;2023-12-20T07:45:05;3.70;99.90
21184;DHT22;18176;49.502;11.754;2023-12-20T07:49:06;3.70;99.90
21184;DHT22;18176;49.502;11.754;2023-12-20T07:53:07;3.70;99.90
21184;DHT22;18176;49.502;11.754;2023-12-20T07:57:07;3.70;99.90
21184;DHT22;18176;49.502;11.754;2023-12-20T08:01:12;3.70;99.90
21184;DHT22;18176;49.502;11.754;2023-12-20T08:05:12;3.70;99.90
21184;DHT22;18176;49.502;11.754;2023-12-20T08:09:15;3.80;99.90
21184;DHT22;18176;49.502;11.754;2023-12-20T08:13:15;3.80;99.90
21184;DHT22;18176;49.502;11.754;2023-12-20T08:17:18;4.00;99.90
21184;DHT22;18176;49.502;11.754;2023-12-20T08:21:20;4.00;99.90
21184;DHT22;18176;49.502;11.754;2023-12-20T08:25:20;4.00;99.90
21184;DHT22;18176;49.502;11.754;2023-12-20T08:29:20;4.00;99.90
21184;DHT22;18176;49.502;11.754;2023-12-20T08:33:23;4.00;99.90
21184;DHT22;18176;49.502;11.754;2023-12-20T08:37:24;4.00;99.90
21184;DHT22;18176;49.502;11.754;2023-12-20T08:41:24;4.00;99.90
21184;DHT22;18176;49.502;11.754;2023-12-20T08:45:25;4.00;99.90
21184;DHT22;18176;49.502;11.754;2023-12-20T08:49:28;4.00;99.90
21184;DHT22;18176;49.502;11.754;2023-12-20T08:53:28;4.00;99.90
21184;DHT22;18176;49.502;11.754;2023-12-20T08:57:29;4.10;99.90
21184;DHT22;18176;49.502;11.754;2023-12-20T09:01:30;4.20;99.90
21184;DHT22;18176;49.502;11.754;2023-12-20T09:05:33;4.20;99.90
21184;DHT22;18176;49.502;11.754;2023-12-20T09:09:34;4.30;99.90
21184;DHT22;18176;49.502;11.754;2023-12-20T09:13:34;4.20;99.90
21184;DHT22;18176;49.502;11.754;2023-12-20T09:17:34;4.20;99.90
21184;DHT22;18176;49.502;11.754;2023-12-20T09:21:37;4.30;99.90
21184;DHT22;18176;49.502;11.754;2023-12-20T09:25:38;4.30;99.90
21184;DHT22;18176;49.502;11.754;2023-12-20T09:29:38;4.20;99.90
21184;DHT22;18176;49.502;11.754;2023-12-20T09:33:38;4.10;99.90
21184;DHT22;18176;49.502;11.754;2023-12-20T09:37:41;4.00;99.90
21184;DHT22;18176;49.502;11.754;2023-12-20T09:41:45;4.00;99.90
21184;DHT22;18176;49.502;11.754;2023-12-20T09:45:48;4.00;99.90
21184;DHT22;18176;49.502;11.754;2023-12-20T09:49:52;4.20;99.90
21184;DHT22;18176;49.502;11.754;2023-12-20T09:53:58;4.50;99.90
21184;DHT22;18176;49.502;11.754;2023-12-20T09:58:00;5.00;99.90
21184;DHT22;18176;49.502;11.754;2023-12-20T10:02:01;5.40;99.90
21184;DHT22;18176;49.502;11.754;2023-12-20T10:06:09;5.50;99.90
21184;DHT22;18176;49.502;11.754;2023-12-20T10:10:13;5.30;99.90
21184;DHT22;18176;49.502;11.754;2023-12-20T10:14:14;5.10;99.90
21184;DHT22;18176;49.502;11.754;2023-12-20T10:18:16;5.40;99.90
21184;DHT22;18176;49.502;11.754;2023-12-20T10:22:17;5.40;99.90
21184;DHT22;18176;49.502;11.754;2023-12-20T10:26:24;5.50;99.90
21184;DHT22;18176;49.502;11.754;2023-12-20T10:30:27;5.50;99.90
21184;DHT22;18176;49.502;11.754;2023-12-20T10:34:28;5.20;99.90
21184;DHT22;18176;49.502;11.754;2023-12-20T10:38:28;4.90;99.90
21184;DHT22;18176;49.502;11.754;2023-12-20T10:42:32;4.80;99.90
21184;DHT22;18176;49.502;11.754;2023-12-20T10:46:34;4.70;99.90
21184;DHT22;18176;49.502;11.754;2023-12-20T10:50:36;4.70;99.90
21184;DHT22;18176;49.502;11.754;2023-12-20T10:54:38;4.60;99.90
21184;DHT22;18176;49.502;11.754;2023-12-20T10:58:42;4.50;99.90
21184;DHT22;18176;49.502;11.754;2023-12-20T11:02:43;4.40;99.90
21184;DHT22;18176;49.502;11.754;2023-12-20T11:06:47;4.30;99.90
21184;DHT22;18176;49.502;11.754;2023-12-20T11:10:58;4.30;99.90
21184;DHT22;18176;49.502;11.754;2023-12-20T11:15:06;4.20;99.90
21184;DHT22;18176;49.502;11.754;2023-12-20T11:19:08;4.20;99.90
21184;DHT22;18176;49.502;11.754;2023-12-20T11:23:11;4.10;99.90
21184;DHT22;18176;49.502;11.754;2023-12-20T11:27:12;4.10;99.90
21184;DHT22;18176;49.502;11.754;2023-12-20T11:31:15;4.00;99.90
21184;DHT22;18176;49.502;11.754;2023-12-20T11:35:19;4.10;99.90
21184;DHT22;18176;49.502;11.754;2023-12-20T11:39:21;4.20;99.90
21184;DHT22;18176;49.502;11.754;2023-12-20T11:43:31;4.20;99.90
21184;DHT22;18176;49.502;11.754;2023-12-20T11:47:37;4.30;99.90
21184;DHT22;18176;49.502;11.754;2023-12-20T11:51:40;4.50;99.90
21184;DHT22;18176;49.502;11.754;2023-12-20T11:55:41;4.60;99.90
21184;DHT22;18176;49.502;11.754;2023-12-20T11:59:45;4.50;99.90
21184;DHT22;18176;49.502;11.754;2023-12-20T12:03:48;4.50;99.90
21184;DHT22;18176;49.502;11.754;2023-12-20T12:08:02;4.60;99.90
21184;DHT22;18176;49.502;11.754;2023-12-20T12:12:03;4.60;99.90
21184;DHT22;18176;49.502;11.754;2023-12-20T12:16:10;4.50;99.90
21184;DHT22;18176;49.502;11.754;2023-12-20T12:20:13;4.50;99.90
21184;DHT22;18176;49.502;11.754;2023-12-20T12:24:14;4.60;99.90
21184;DHT22;18176;49.502;11.754;2023-12-20T12:28:14;4.50;99.90
21184;DHT22;18176;49.502;11.754;2023-12-20T12:32:15;4.40;99.90
21184;DHT22;18176;49.502;11.754;2023-12-20T12:36:19;4.30;99.90
21184;DHT22;18176;49.502;11.754;2023-12-20T12:40:19;4.40;99.90
21184;DHT22;18176;49.502;11.754;2023-12-20T12:44:20;4.40;99.90
21184;DHT22;18176;49.502;11.754;2023-12-20T12:48:20;4.40;99.90
21184;DHT22;18176;49.502;11.754;2023-12-20T12:52:24;4.30;99.90
21184;DHT22;18176;49.502;11.754;2023-12-20T12:56:25;4.30;99.90
21184;DHT22;18176;49.502;11.754;2023-12-20T13:00:26;4.20;99.90
21184;DHT22;18176;49.502;11.754;2023-12-20T13:04:26;4.30;99.90
21184;DHT22;18176;49.502;11.754;2023-12-20T13:08:29;4.30;99.90
21184;DHT22;18176;49.502;11.754;2023-12-20T13:12:30;4.30;99.90
21184;DHT22;18176;49.502;11.754;2023-12-20T13:16:31;4.30;99.90
21184;DHT22;18176;49.502;11.754;2023-12-20T13:20:31;4.20;99.90
21184;DHT22;18176;49.502;11.754;2023-12-20T13:24:35;4.20;99.90
21184;DHT22;18176;49.502;11.754;2023-12-20T13:28:35;4.10;99.90
21184;DHT22;18176;49.502;11.754;2023-12-20T13:32:35;4.00;99.90
21184;DHT22;18176;49.502;11.754;2023-12-20T13:36:36;4.00;99.90
21184;DHT22;18176;49.502;11.754;2023-12-20T13:40:39;4.00;99.90
21184;DHT22;18176;49.502;11.754;2023-12-20T13:44:40;4.10;99.90
21184;DHT22;18176;49.502;11.754;2023-12-20T13:48:41;4.10;99.90
21184;DHT22;18176;49.502;11.754;2023-12-20T13:52:42;4.20;99.90
21184;DHT22;18176;49.502;11.754;2023-12-20T13:56:46;4.30;99.90
21184;DHT22;18176;49.502;11.754;2023-12-20T14:01:04;4.30;99.90
21184;DHT22;18176;49.502;11.754;2023-12-20T14:05:06;4.30;99.90
21184;DHT22;18176;49.502;11.754;2023-12-20T14:09:07;4.30;99.90
21184;DHT22;18176;49.502;11.754;2023-12-20T14:13:11;4.20;99.90
21184;DHT22;18176;49.502;11.754;2023-12-20T14:17:12;4.00;99.90
21184;DHT22;18176;49.502;11.754;2023-12-20T14:21:12;3.90;99.90
21184;DHT22;18176;49.502;11.754;2023-12-20T14:25:13;3.80;99.90
21184;DHT22;18176;49.502;11.754;2023-12-20T14:29:17;3.70;99.90
21184;DHT22;18176;49.502;11.754;2023-12-20T14:33:17;3.70;99.90
21184;DHT22;18176;49.502;11.754;2023-12-20T14:37:19;3.70;99.90
21184;DHT22;18176;49.502;11.754;2023-12-20T14:41:20;3.70;99.90
21184;DHT22;18176;49.502;11.754;2023-12-20T14:45:24;3.70;99.90
21184;DHT22;18176;49.502;11.754;2023-12-20T14:49:25;3.70;99.90
21184;DHT22;18176;49.502;11.754;2023-12-20T14:53:26;3.70;99.90
21184;DHT22;18176;49.502;11.754;2023-12-20T14:57:27;3.70;99.90
21184;DHT22;18176;49.502;11.754;2023-12-20T15:01:29;3.70;99.90
21184;DHT22;18176;49.502;11.754;2023-12-20T15:05:30;3.60;99.90
21184;DHT22;18176;49.502;11.754;2023-12-20T15:09:31;3.50;99.90
21184;DHT22;18176;49.502;11.754;2023-12-20T15:13:31;3.50;99.90
21184;DHT22;18176;49.502;11.754;2023-12-20T15:17:35;3.50;99.90
21184;DHT22;18176;49.502;11.754;2023-12-20T15:21:36;3.50;99.90
21184;DHT22;18176;49.502;11.754;2023-12-20T15:25:43;3.50;99.90
21184;DHT22;18176;49.502;11.754;2023-12-20T15:29:44;3.50;99.90
21184;DHT22;18176;49.502;11.754;2023-12-20T15:33:49;3.50;99.90
21184;DHT22;18176;49.502;11.754;2023-12-20T15:37:50;3.50;99.90
21184;DHT22;18176;49.502;11.754;2023-12-20T15:41:50;3.50;99.90
21184;DHT22;18176;49.502;11.754;2023-12-20T15:45:51;3.50;99.90
21184;DHT22;18176;49.502;11.754;2023-12-20T15:49:54;3.50;99.90
21184;DHT22;18176;49.502;11.754;2023-12-20T15:53:58;3.50;99.90
21184;DHT22;18176;49.502;11.754;2023-12-20T15:58:03;3.50;99.90
21184;DHT22;18176;49.502;11.754;2023-12-20T16:02:03;3.60;99.90
21184;DHT22;18176;49.502;11.754;2023-12-20T16:06:07;3.70;99.90
21184;DHT22;18176;49.502;11.754;2023-12-20T16:10:09;3.70;99.90
21184;DHT22;18176;49.502;11.754;2023-12-20T16:14:10;3.70;99.90
21184;DHT22;18176;49.502;11.754;2023-12-20T16:18:14;3.80;99.90
21184;DHT22;18176;49.502;11.754;2023-12-20T16:22:17;3.80;99.90
21184;DHT22;18176;49.502;11.754;2023-12-20T16:26:18;3.80;99.90
21184;DHT22;18176;49.502;11.754;2023-12-20T16:30:18;3.80;99.90
21184;DHT22;18176;49.502;11.754;2023-12-20T16:34:19;3.80;99.90
21184;DHT22;18176;49.502;11.754;2023-12-20T16:38:22;3.80;99.90
21184;DHT22;18176;49.502;11.754;2023-12-20T16:42:22;3.60;99.90
21184;DHT22;18176;49.502;11.754;2023-12-20T16:46:22;3.50;99.90
21184;DHT22;18176;49.502;11.754;2023-12-20T16:50:23;3.50;99.90
21184;DHT22;18176;49.502;11.754;2023-12-20T16:54:26;3.50;99.90
21184;DHT22;18176;49.502;11.754;2023-12-20T16:58:27;3.40;99.90
21184;DHT22;18176;49.502;11.754;2023-12-20T17:02:28;3.50;99.90
21184;DHT22;18176;49.502;11.754;2023-12-20T17:06:32;3.50;99.90
21184;DHT22;18176;49.502;11.754;2023-12-20T17:10:35;3.50;99.90
21184;DHT22;18176;49.502;11.754;2023-12-20T17:14:35;3.50;99.90
21184;DHT22;18176;49.502;11.754;2023-12-20T17:18:35;3.60;99.90
21184;DHT22;18176;49.502;11.754;2023-12-20T17:22:36;3.60;99.90
21184;DHT22;18176;49.502;11.754;2023-12-20T17:26:39;3.70;99.90
21184;DHT22;18176;49.502;11.754;2023-12-20T17:30:39;3.70;99.90
21184;DHT22;18176;49.502;11.754;2023-12-20T17:34:43;3.70;99.90
21184;DHT22;18176;49.502;11.754;2023-12-20T17:38:44;3.70;99.90
21184;DHT22;18176;49.502;11.754;2023-12-20T17:42:47;3.80;99.90
21184;DHT22;18176;49.502;11.754;2023-12-20T17:46:48;3.80;99.90
21184;DHT22;18176;49.502;11.754;2023-12-20T17:50:49;3.80;99.90
21184;DHT22;18176;49.502;11.754;2023-12-20T17:54:51;3.90;99.90
21184;DHT22;18176;49.502;11.754;2023-12-20T17:58:54;3.90;99.90
21184;DHT22;18176;49.502;11.754;2023-12-20T18:02:55;3.90;99.90
21184;DHT22;18176;49.502;11.754;2023-12-20T18:06:55;3.90;99.90
21184;DHT22;18176;49.502;11.754;2023-12-20T18:10:56;4.00;99.90
21184;DHT22;18176;49.502;11.754;2023-12-20T18:14:59;4.00;99.90
21184;DHT22;18176;49.502;11.754;2023-12-20T18:19:00;4.00;99.90
21184;DHT22;18176;49.502;11.754;2023-12-20T18:23:01;3.90;99.90
21184;DHT22;18176;49.502;11.754;2023-12-20T18:27:02;3.80;99.90
21184;DHT22;18176;49.502;11.754;2023-12-20T18:31:05;3.70;99.90
21184;DHT22;18176;49.502;11.754;2023-12-20T18:35:06;3.60;99.90
21184;DHT22;18176;49.502;11.754;2023-12-20T18:39:07;3.50;99.90
21184;DHT22;18176;49.502;11.754;2023-12-20T18:43:07;3.40;99.90
21184;DHT22;18176;49.502;11.754;2023-12-20T18:47:11;3.40;99.90
21184;DHT22;18176;49.502;11.754;2023-12-20T18:51:11;3.40;99.90
21184;DHT22;18176;49.502;11.754;2023-12-20T18:55:12;3.30;99.90
21184;DHT22;18176;49.502;11.754;2023-12-20T18:59:13;3.20;99.90
21184;DHT22;18176;49.502;11.754;2023-12-20T19:03:16;3.20;99.90
21184;DHT22;18176;49.502;11.754;2023-12-20T19:07:18;3.10;99.90
21184;DHT22;18176;49.502;11.754;2023-12-20T19:11:18;3.20;99.90
21184;DHT22;18176;49.502;11.754;2023-12-20T19:15:20;3.20;99.90
21184;DHT22;18176;49.502;11.754;2023-12-20T19:19:24;3.20;99.90
21184;DHT22;18176;49.502;11.754;2023-12-20T19:23:25;3.20;99.90
21184;DHT22;18176;49.502;11.754;2023-12-20T19:27:26;3.10;99.90
21184;DHT22;18176;49.502;11.754;2023-12-20T19:31:26;3.20;99.90
21184;DHT22;18176;49.502;11.754;2023-12-20T19:35:30;3.10;99.90
21184;DHT22;18176;49.502;11.754;2023-12-20T19:39:30;3.10;99.90
21184;DHT22;18176;49.502;11.754;2023-12-20T19:43:32;3.10;99.90
21184;DHT22;18176;49.502;11.754;2023-12-20T19:47:33;3.10;99.90
21184;DHT22;18176;49.502;11.754;2023-12-20T19:51:36;3.10;99.90
21184;DHT22;18176;49.502;11.754;2023-12-20T19:55:37;3.10;99.90
21184;DHT22;18176;49.502;11.754;2023-12-20T19:59:38;3.10;99.90
21184;DHT22;18176;49.502;11.754;2023-12-20T20:03:39;3.10;99.90
21184;DHT22;18176;49.502;11.754;2023-12-20T20:07:43;3.20;99.90
21184;DHT22;18176;49.502;11.754;2023-12-20T20:11:44;3.20;99.90
21184;DHT22;18176;49.502;11.754;2023-12-20T20:15:46;3.20;99.90
21184;DHT22;18176;49.502;11.754;2023-12-20T20:19:47;3.20;99.90
21184;DHT22;18176;49.502;11.754;2023-12-20T20:23:51;3.20;99.90
21184;DHT22;18176;49.502;11.754;2023-12-20T20:27:51;3.20;99.90
21184;DHT22;18176;49.502;11.754;2023-12-20T20:31:52;3.20;99.90
21184;DHT22;18176;49.502;11.754;2023-12-20T20:35:52;3.20;99.90
21184;DHT22;18176;49.502;11.754;2023-12-20T20:39:56;3.20;99.90
21184;DHT22;18176;49.502;11.754;2023-12-20T20:43:57;3.20;99.90
21184;DHT22;18176;49.502;11.754;2023-12-20T20:47:58;3.30;99.90
21184;DHT22;18176;49.502;11.754;2023-12-20T20:52:16;3.30;99.90
21184;DHT22;18176;49.502;11.754;2023-12-20T20:56:20;3.30;99.90
21184;DHT22;18176;49.502;11.754;2023-12-20T21:00:20;3.30;99.90
21184;DHT22;18176;49.502;11.754;2023-12-20T21:04:21;3.30;99.90
21184;DHT22;18176;49.502;11.754;2023-12-20T21:08:22;3.40;99.90
21184;DHT22;18176;49.502;11.754;2023-12-20T21:12:25;3.40;99.90
21184;DHT22;18176;49.502;11.754;2023-12-20T21:16:25;3.40;99.90
21184;DHT22;18176;49.502;11.754;2023-12-20T21:20:26;3.40;99.90
21184;DHT22;18176;49.502;11.754;2023-12-20T21:24:27;3.40;99.90
21184;DHT22;18176;49.502;11.754;2023-12-20T21:28:30;3.40;99.90
21184;DHT22;18176;49.502;11.754;2023-12-20T21:32:30;3.50;99.90
21184;DHT22;18176;49.502;11.754;2023-12-20T21:36:32;3.50;99.90
21184;DHT22;18176;49.502;11.754;2023-12-20T21:40:32;3.50;99.90
21184;DHT22;18176;49.502;11.754;2023-12-20T21:44:36;3.50;99.90
21184;DHT22;18176;49.502;11.754;2023-12-20T21:48:36;3.50;99.90
21184;DHT22;18176;49.502;11.754;2023-12-20T21:52:40;3.50;99.90
21184;DHT22;18176;49.502;11.754;2023-12-20T21:56:41;3.50;99.90
21184;DHT22;18176;49.502;11.754;2023-12-20T22:00:44;3.50;99.90
21184;DHT22;18176;49.502;11.754;2023-12-20T22:04:44;3.50;99.90
21184;DHT22;18176;49.502;11.754;2023-12-20T22:08:45;3.40;99.90
21184;DHT22;18176;49.502;11.754;2023-12-20T22:12:46;3.40;99.90
21184;DHT22;18176;49.502;11.754;2023-12-20T22:16:50;3.50;99.90
21184;DHT22;18176;49.502;11.754;2023-12-20T22:20:51;3.50;99.90
21184;DHT22;18176;49.502;11.754;2023-12-20T22:24:53;3.50;99.90
21184;DHT22;18176;49.502;11.754;2023-12-20T22:28:54;3.50;99.90
21184;DHT22;18176;49.502;11.754;2023-12-20T22:32:58;3.50;99.90
21184;DHT22;18176;49.502;11.754;2023-12-20T22:36:59;3.50;99.90
21184;DHT22;18176;49.502;11.754;2023-12-20T22:41:01;3.50;99.90
21184;DHT22;18176;49.502;11.754;2023-12-20T22:45:03;3.50;99.90
21184;DHT22;18176;49.502;11.754;2023-12-20T22:49:07;3.50;99.90
21184;DHT22;18176;49.502;11.754;2023-12-20T22:53:10;3.50;99.90
21184;DHT22;18176;49.502;11.754;2023-12-20T22:57:12;3.50;99.90
21184;DHT22;18176;49.502;11.754;2023-12-20T23:01:18;3.50;99.90
21184;DHT22;18176;49.502;11.754;2023-12-20T23:05:22;3.50;99.90
21184;DHT22;18176;49.502;11.754;2023-12-20T23:09:23;3.50;99.90
21184;DHT22;18176;49.502;11.754;2023-12-20T23:13:24;3.50;99.90
21184;DHT22;18176;49.502;11.754;2023-12-20T23:17:25;3.50;99.90
21184;DHT22;18176;49.502;11.754;2023-12-20T23:21:29;3.50;99.90
21184;DHT22;18176;49.502;11.754;2023-12-20T23:25:30;3.50;99.90
21184;DHT22;18176;49.502;11.754;2023-12-20T23:29:31;3.50;99.90
21184;DHT22;18176;49.502;11.754;2023-12-20T23:33:32;3.50;99.90
21184;DHT22;18176;49.502;11.754;2023-12-20T23:37:36;3.60;99.90
21184;DHT22;18176;49.502;11.754;2023-12-20T23:41:37;3.60;99.90
21184;DHT22;18176;49.502;11.754;2023-12-20T23:45:38;3.60;99.90
21184;DHT22;18176;49.502;11.754;2023-12-20T23:49:39;3.60;99.90
21184;DHT22;18176;49.502;11.754;2023-12-20T23:53:43;3.60;99.90
21184;DHT22;18176;49.502;11.754;2023-12-20T23:57:44;3.70;99.90
